Time;durP1;ratioP1;P1;durP2;ratioP2;P2;SDS_P1;SDS_P2;PMS_P1;PMS_P2;Temp;Humidity;BMP_temperature;BMP_pressure;BME280_temperature;BME280_humidity;BME280_pressure;Samples;Min_cycle;Max_cycle;Signal;HPM_P1;HPM_P2
2024/02/09 00:00:17;;;;;;;37.00;11.15;;;11.80;99.90;;;;;;5030860;28;20505;-74
2024/02/09 00:02:46;;;;;;;28.92;10.52;;;11.70;99.90;;;;;;5031501;28;20048;-74
2024/02/09 00:05:16;;;;;;;30.40;11.00;;;11.80;99.90;;;;;;5030826;28;20061;-74
2024/02/09 00:07:46;;;;;;;27.10;9.90;;;11.80;99.90;;;;;;5030646;28;20028;-74
2024/02/09 00:10:12;;;;;;;26.73;10.10;;;11.80;99.90;;;;;;5030717;28;20030;-74
2024/02/09 00:12:40;;;;;;;29.27;11.40;;;11.70;99.90;;;;;;5031261;28;20048;-74
2024/02/09 00:15:07;;;;;;;27.58;10.48;;;11.70;99.90;;;;;;5026762;28;20026;-75
2024/02/09 00:17:35;;;;;;;24.88;9.77;;;11.60;99.90;;;;;;5027290;28;20033;-75
2024/02/09 00:20:01;;;;;;;26.02;11.15;;;11.70;99.90;;;;;;5031833;28;20025;-74
2024/02/09 00:22:27;;;;;;;29.80;10.15;;;11.70;99.90;;;;;;5030693;28;20104;-75
2024/02/09 00:24:52;;;;;;;28.73;9.57;;;11.70;99.90;;;;;;5031142;28;20148;-74
2024/02/09 00:27:18;;;;;;;27.23;10.70;;;11.70;99.90;;;;;;5031530;28;20064;-74
2024/02/09 00:29:44;;;;;;;30.08;10.40;;;11.70;99.90;;;;;;5032070;28;20092;-74
2024/02/09 00:32:13;;;;;;;28.38;10.77;;;11.70;99.90;;;;;;5030742;28;20040;-74
2024/02/09 00:34:39;;;;;;;29.20;10.43;;;11.70;99.90;;;;;;5030327;28;20025;-74
2024/02/09 00:37:06;;;;;;;26.52;9.65;;;11.70;99.90;;;;;;5031175;28;20071;-74
2024/02/09 00:39:33;;;;;;;27.42;9.50;;;11.70;99.90;;;;;;5032009;28;20068;-74
2024/02/09 00:42:01;;;;;;;30.17;10.00;;;11.70;99.90;;;;;;5030861;28;20060;-74
2024/02/09 00:44:26;;;;;;;27.52;10.35;;;11.70;99.90;;;;;;5031215;28;20021;-74
2024/02/09 00:46:52;;;;;;;28.10;9.20;;;11.70;99.90;;;;;;5030119;28;20462;-74
2024/02/09 00:49:18;;;;;;;26.30;9.52;;;11.70;99.90;;;;;;5031255;28;20100;-75
2024/02/09 00:51:45;;;;;;;26.65;9.73;;;11.70;99.90;;;;;;5031237;28;20033;-74
2024/02/09 00:54:14;;;;;;;31.35;9.23;;;11.70;99.90;;;;;;5030723;28;20565;-75
2024/02/09 00:56:41;;;;;;;31.58;9.35;;;11.70;99.90;;;;;;5022033;28;20052;-75
2024/02/09 00:59:07;;;;;;;24.83;8.73;;;11.60;99.90;;;;;;5029119;28;20104;-74
2024/02/09 01:01:33;;;;;;;25.52;8.63;;;11.60;99.90;;;;;;5019241;28;20062;-74
2024/02/09 01:04:00;;;;;;;27.20;10.43;;;11.60;99.90;;;;;;5030844;28;20029;-74
2024/02/09 01:06:26;;;;;;;25.27;8.80;;;11.60;99.90;;;;;;5035006;28;20112;-74
2024/02/09 01:08:53;;;;;;;22.58;8.65;;;11.60;99.90;;;;;;5034567;28;20021;-74
2024/02/09 01:11:19;;;;;;;27.58;8.73;;;11.70;99.90;;;;;;5034599;28;20026;-74
2024/02/09 02:46:31;;;;;;;18.55;6.60;;;11.50;99.90;;;;;;5032485;28;20060;-74
2024/02/09 03:05:28;;;;;;;13.50;5.72;;;11.50;99.90;;;;;;5030726;28;20121;-75
2024/02/09 03:07:56;;;;;;;12.05;5.25;;;11.50;99.90;;;;;;5032747;28;20036;-74
2024/02/09 03:10:22;;;;;;;15.82;5.57;;;11.60;99.90;;;;;;5029953;28;20033;-75
2024/02/09 03:12:49;;;;;;;15.32;5.78;;;11.60;99.90;;;;;;5021584;28;20025;-74
2024/02/09 03:15:15;;;;;;;10.70;4.85;;;11.60;99.90;;;;;;5031966;28;20072;-75
2024/02/09 03:17:41;;;;;;;9.57;5.07;;;11.60;99.90;;;;;;5032512;28;20017;-75
2024/02/09 03:20:08;;;;;;;13.93;4.97;;;11.60;99.90;;;;;;5032298;28;20034;-74
2024/02/09 03:22:35;;;;;;;11.45;3.75;;;11.50;99.90;;;;;;5032259;28;20067;-74
2024/02/09 03:25:03;;;;;;;11.95;4.50;;;11.60;99.90;;;;;;5032152;28;20026;-74
2024/02/09 03:27:33;;;;;;;8.23;4.93;;;11.50;99.90;;;;;;5032125;28;20045;-74
2024/02/09 03:30:00;;;;;;;10.10;4.25;;;11.50;99.90;;;;;;5031594;28;20609;-75
2024/02/09 03:32:29;;;;;;;9.05;4.05;;;11.50;99.90;;;;;;5031905;28;20030;-74
2024/02/09 03:34:56;;;;;;;9.45;4.05;;;11.50;99.90;;;;;;5032033;28;20049;-74
2024/02/09 03:37:30;;;;;;;9.45;3.72;;;11.50;99.90;;;;;;5031558;28;20032;-74
2024/02/09 03:39:56;;;;;;;12.60;4.30;;;11.40;99.90;;;;;;5032367;28;20418;-74
2024/02/09 03:42:23;;;;;;;7.72;3.78;;;11.40;99.90;;;;;;5031736;28;20078;-74
2024/02/09 03:44:56;;;;;;;10.13;4.10;;;11.50;99.90;;;;;;5031405;28;20036;-74
2024/02/09 03:47:24;;;;;;;9.18;4.53;;;11.50;99.90;;;;;;5031398;28;20022;-73
2024/02/09 03:49:56;;;;;;;11.13;4.25;;;11.50;99.90;;;;;;5019567;28;20064;-74
2024/02/09 03:52:23;;;;;;;9.38;4.05;;;11.40;99.90;;;;;;5031115;28;20060;-74
2024/02/09 03:54:54;;;;;;;7.82;3.70;;;11.50;99.90;;;;;;5031809;28;20036;-75
2024/02/09 03:57:20;;;;;;;9.57;4.10;;;11.30;99.90;;;;;;5032026;28;20037;-74
2024/02/09 03:59:46;;;;;;;14.05;4.03;;;11.50;99.90;;;;;;5029599;28;20351;-74
2024/02/09 04:02:12;;;;;;;10.27;3.95;;;11.40;99.90;;;;;;5031982;28;20028;-75
2024/02/09 04:04:38;;;;;;;8.68;3.80;;;11.50;99.90;;;;;;5031976;28;20036;-74
2024/02/09 04:07:08;;;;;;;6.07;3.45;;;11.50;99.90;;;;;;5033546;28;20030;-74
2024/02/09 04:09:34;;;;;;;7.50;3.67;;;11.40;99.90;;;;;;5042078;28;20100;-74
2024/02/09 04:12:00;;;;;;;8.02;3.60;;;11.50;99.90;;;;;;5031140;28;20108;-74
2024/02/09 04:14:27;;;;;;;8.00;3.05;;;11.40;99.90;;;;;;5031610;28;20483;-74
2024/02/09 04:16:53;;;;;;;10.75;3.55;;;11.50;99.90;;;;;;5031372;28;20033;-74
2024/02/09 04:19:23;;;;;;;6.03;3.17;;;11.50;99.90;;;;;;5030771;28;20041;-74
2024/02/09 04:21:48;;;;;;;8.77;3.15;;;11.50;99.90;;;;;;5031553;28;20027;-74
2024/02/09 04:24:24;;;;;;;5.95;3.63;;;11.50;99.90;;;;;;5031690;28;20026;-74
2024/02/09 04:26:51;;;;;;;7.70;3.47;;;11.50;99.90;;;;;;5028489;28;20033;-74
2024/02/09 04:29:18;;;;;;;15.30;3.15;;;11.40;99.90;;;;;;5022614;28;20528;-74
2024/02/09 04:31:46;;;;;;;7.57;3.10;;;11.40;99.90;;;;;;5031824;28;20026;-74
2024/02/09 04:34:13;;;;;;;5.60;3.05;;;11.50;99.90;;;;;;5031764;28;20080;-74
2024/02/09 04:36:41;;;;;;;7.25;3.08;;;11.50;99.90;;;;;;5031496;28;20037;-74
2024/02/09 04:39:10;;;;;;;7.10;3.20;;;11.50;99.90;;;;;;5031716;28;20026;-74
2024/02/09 04:41:37;;;;;;;8.07;2.90;;;11.50;99.90;;;;;;5034828;28;20040;-74
2024/02/09 04:44:06;;;;;;;7.50;3.13;;;11.50;99.90;;;;;;5035468;28;20462;-74
2024/02/09 04:46:32;;;;;;;3.85;2.63;;;11.60;99.90;;;;;;5022354;28;20026;-74
2024/02/09 04:49:03;;;;;;;4.30;2.45;;;11.50;99.90;;;;;;5034435;28;20124;-74
2024/02/09 04:51:29;;;;;;;4.75;2.67;;;11.50;99.90;;;;;;5035145;28;20029;-74
2024/02/09 04:53:55;;;;;;;7.32;3.00;;;11.50;99.90;;;;;;5033186;28;20020;-74
2024/02/09 04:56:22;;;;;;;5.90;2.83;;;11.50;99.90;;;;;;5035124;28;20041;-74
2024/02/09 04:58:49;;;;;;;7.32;2.58;;;11.60;99.90;;;;;;5034823;28;20026;-74
2024/02/09 05:01:27;;;;;;;5.10;2.70;;;11.50;99.90;;;;;;5035306;28;20120;-74
2024/02/09 05:04:00;;;;;;;6.85;2.72;;;11.50;99.90;;;;;;5033700;28;20052;-74
2024/02/09 05:06:28;;;;;;;7.32;2.78;;;11.50;99.90;;;;;;5034975;28;20555;-74
2024/02/09 05:08:56;;;;;;;5.82;2.60;;;11.40;99.90;;;;;;5034668;28;20057;-74
2024/02/09 05:11:30;;;;;;;6.07;3.05;;;11.50;99.90;;;;;;5034337;28;20101;-74
2024/02/09 05:13:56;;;;;;;6.80;2.92;;;11.50;99.90;;;;;;5032911;28;20474;-74
2024/02/09 05:16:23;;;;;;;3.20;2.38;;;11.50;99.90;;;;;;5034676;28;20084;-74
2024/02/09 05:18:49;;;;;;;4.70;2.20;;;11.50;99.90;;;;;;5035025;28;20034;-74
2024/02/09 05:21:14;;;;;;;6.45;2.60;;;11.50;99.90;;;;;;5034707;28;20017;-74
2024/02/09 05:23:41;;;;;;;7.35;2.72;;;11.40;99.90;;;;;;5033749;28;20386;-73
2024/02/09 05:26:10;;;;;;;6.40;2.55;;;11.50;99.90;;;;;;5033533;28;20030;-74
2024/02/09 05:28:40;;;;;;;5.82;3.05;;;11.50;99.90;;;;;;5033160;28;20040;-74
2024/02/09 05:31:13;;;;;;;7.85;3.35;;;11.50;99.90;;;;;;5034779;28;20080;-74
2024/02/09 05:33:38;;;;;;;6.57;2.78;;;11.50;99.90;;;;;;5034666;28;20022;-73
2024/02/09 05:36:04;;;;;;;10.32;3.58;;;11.30;99.90;;;;;;5034280;28;20029;-73
2024/02/09 05:38:35;;;;;;;6.10;3.58;;;11.30;99.90;;;;;;5028403;28;20061;-73
2024/02/09 05:41:02;;;;;;;6.18;3.47;;;11.30;99.90;;;;;;5028645;28;20084;-73
2024/02/09 05:43:29;;;;;;;5.30;2.55;;;11.20;99.90;;;;;;5034375;28;20104;-73
2024/02/09 05:45:55;;;;;;;7.15;2.95;;;11.30;99.90;;;;;;5034071;28;20040;-74
2024/02/09 05:48:21;;;;;;;10.45;3.55;;;11.30;99.90;;;;;;5034221;28;20017;-73
2024/02/09 05:50:48;;;;;;;15.50;3.60;;;11.30;99.90;;;;;;5033608;28;20470;-73
2024/02/09 05:53:14;;;;;;;8.40;3.05;;;11.40;99.90;;;;;;5033803;28;20101;-73
2024/02/09 05:55:40;;;;;;;4.00;3.13;;;11.30;99.90;;;;;;5018549;28;20538;-73
2024/02/09 05:58:06;;;;;;;15.32;4.03;;;11.30;99.90;;;;;;5033972;28;20056;-73
2024/02/09 06:00:32;;;;;;;6.88;3.40;;;11.40;99.90;;;;;;5032548;28;20506;-73
2024/02/09 06:02:58;;;;;;;9.55;4.20;;;11.30;99.90;;;;;;5033555;28;20033;-73
2024/02/09 06:05:24;;;;;;;7.53;4.03;;;11.40;99.90;;;;;;5033120;28;20041;-73
2024/02/09 06:07:49;;;;;;;8.57;3.65;;;11.50;99.90;;;;;;5033963;28;20022;-73
2024/02/09 06:10:15;;;;;;;7.93;4.07;;;11.50;99.90;;;;;;5033504;28;20030;-73
2024/02/09 06:12:43;;;;;;;7.22;3.50;;;11.50;99.90;;;;;;5033329;28;20442;-73
2024/02/09 06:15:10;;;;;;;6.40;3.40;;;11.50;99.90;;;;;;5033284;28;20125;-73
2024/02/09 06:17:38;;;;;;;10.90;3.20;;;11.40;99.90;;;;;;5033776;28;20055;-73
2024/02/09 06:20:05;;;;;;;7.57;3.22;;;11.50;99.90;;;;;;5033521;28;20029;-73
2024/02/09 06:22:30;;;;;;;8.73;3.58;;;11.40;99.90;;;;;;5033656;28;20478;-73
2024/02/09 06:24:57;;;;;;;5.07;2.83;;;11.50;99.90;;;;;;5031797;28;20108;-72
2024/02/09 06:27:24;;;;;;;10.65;3.90;;;11.50;99.90;;;;;;5033571;28;20021;-72
2024/02/09 06:29:52;;;;;;;11.88;3.92;;;11.60;99.90;;;;;;5033489;28;20116;-73
2024/02/09 06:32:19;;;;;;;9.88;4.07;;;11.60;99.90;;;;;;5015192;28;20026;-72
2024/02/09 06:34:45;;;;;;;12.93;3.67;;;11.60;99.90;;;;;;5028459;28;20052;-72
2024/02/09 06:37:10;;;;;;;11.10;3.70;;;11.60;99.90;;;;;;5030529;28;20021;-72
2024/02/09 06:39:36;;;;;;;11.80;3.80;;;11.60;99.90;;;;;;5027465;28;20112;-72
2024/02/09 06:42:02;;;;;;;9.57;3.17;;;11.60;99.90;;;;;;5032977;28;20022;-72
2024/02/09 06:44:30;;;;;;;7.85;3.45;;;11.60;99.90;;;;;;5033311;28;20033;-72
2024/02/09 06:46:56;;;;;;;10.05;4.05;;;11.60;99.90;;;;;;5031878;28;20061;-72
2024/02/09 06:49:27;;;;;;;6.47;4.10;;;11.60;99.90;;;;;;5032810;28;20446;-72
2024/02/09 06:51:53;;;;;;;6.80;3.72;;;11.60;99.90;;;;;;5032685;28;20055;-72
2024/02/09 06:54:19;;;;;;;16.27;4.70;;;11.70;99.90;;;;;;5032813;28;20017;-73
2024/02/09 06:56:45;;;;;;;11.35;4.40;;;11.60;99.90;;;;;;5031537;28;20482;-74
2024/02/09 06:59:10;;;;;;;8.10;3.95;;;11.60;99.90;;;;;;5032626;28;20033;-74
2024/02/09 07:01:38;;;;;;;11.10;4.20;;;11.60;99.90;;;;;;5021723;28;20502;-73
2024/02/09 07:04:06;;;;;;;10.77;4.10;;;11.60;99.90;;;;;;5032243;28;20021;-74
2024/02/09 07:06:31;;;;;;;10.88;4.65;;;11.70;99.90;;;;;;5032659;28;20471;-73
2024/02/09 07:08:58;;;;;;;12.15;4.22;;;11.80;99.90;;;;;;5031721;28;20033;-73
2024/02/09 07:11:24;;;;;;;13.93;4.63;;;11.80;99.90;;;;;;5032073;28;20029;-73
2024/02/09 07:13:50;;;;;;;17.08;4.43;;;11.80;99.90;;;;;;5032648;28;20536;-73
2024/02/09 07:16:17;;;;;;;15.25;4.13;;;11.80;99.90;;;;;;5026661;28;20046;-75
2024/02/09 07:18:43;;;;;;;13.77;4.00;;;11.80;99.90;;;;;;5031638;28;20017;-73
2024/02/09 07:21:15;;;;;;;9.63;3.88;;;11.70;99.90;;;;;;5031563;28;20029;-73
2024/02/09 07:23:41;;;;;;;10.07;3.60;;;11.70;99.90;;;;;;5032606;28;20204;-75
2024/02/09 07:26:08;;;;;;;10.88;4.22;;;11.60;99.90;;;;;;5029818;28;20037;-74
2024/02/09 07:28:34;;;;;;;11.75;3.97;;;11.70;99.90;;;;;;5030565;28;20018;-74
2024/02/09 07:31:01;;;;;;;10.40;5.07;;;11.70;99.90;;;;;;5031942;28;20060;-74
2024/02/09 07:33:27;;;;;;;11.43;4.65;;;11.70;99.90;;;;;;5032477;28;20020;-74
2024/02/09 07:35:53;;;;;;;12.35;4.22;;;11.70;99.90;;;;;;5031600;28;20046;-74
2024/02/09 07:38:18;;;;;;;6.18;3.58;;;11.60;99.90;;;;;;5024604;28;20029;-72
2024/02/09 07:40:44;;;;;;;10.63;4.25;;;11.70;99.90;;;;;;5029700;28;20025;-74
2024/02/09 07:43:10;;;;;;;10.00;4.28;;;11.60;99.90;;;;;;5021285;28;20482;-73
2024/02/09 07:45:35;;;;;;;12.98;3.80;;;11.70;99.90;;;;;;5023753;28;20079;-76
2024/02/09 07:48:02;;;;;;;13.25;4.65;;;11.70;99.90;;;;;;5023408;28;20045;-75
2024/02/09 07:50:28;;;;;;;10.57;4.57;;;11.80;99.90;;;;;;5024877;28;20064;-75
2024/02/09 07:52:54;;;;;;;12.63;3.85;;;11.80;99.90;;;;;;5030716;28;20025;-75
2024/02/09 07:55:21;;;;;;;10.23;3.60;;;11.80;99.90;;;;;;5032128;28;20111;-75
2024/02/09 07:57:50;;;;;;;11.80;3.88;;;11.80;99.90;;;;;;5031049;28;20036;-75
2024/02/09 08:00:20;;;;;;;13.30;3.88;;;11.80;99.90;;;;;;5020458;28;20025;-74
2024/02/09 08:02:46;;;;;;;10.27;4.13;;;11.90;99.90;;;;;;5020507;28;20418;-75
2024/02/09 08:05:18;;;;;;;9.85;3.33;;;11.90;99.90;;;;;;5028661;28;20407;-75
2024/02/09 08:07:52;;;;;;;11.48;3.85;;;11.90;99.90;;;;;;5031398;28;20287;-75
2024/02/09 08:10:18;;;;;;;8.07;3.38;;;11.90;99.90;;;;;;5031853;28;20021;-77
2024/02/09 08:12:51;;;;;;;12.90;3.90;;;11.90;99.90;;;;;;5030544;28;20399;-74
2024/02/09 08:15:17;;;;;;;;;;;11.90;99.90;;;;;;5032865;28;20073;-76
2024/02/09 08:17:48;;;;;;;8.30;3.42;;;12.00;99.90;;;;;;5025611;28;19961;-74
2024/02/09 08:20:14;;;;;;;14.73;4.78;;;12.00;99.90;;;;;;5005874;28;20052;-72
2024/02/09 08:22:44;;;;;;;7.28;3.30;;;12.00;99.90;;;;;;5022169;28;20036;-72
2024/02/09 08:25:11;;;;;;;10.23;3.60;;;12.10;99.90;;;;;;5038767;28;20025;-72
2024/02/09 08:27:36;;;;;;;5.20;3.08;;;12.00;99.90;;;;;;5044828;28;20025;-73
2024/02/09 08:30:04;;;;;;;9.23;3.38;;;12.10;99.90;;;;;;5043594;28;20090;-73
2024/02/09 08:32:30;;;;;;;9.65;3.40;;;12.20;99.90;;;;;;5034628;28;20028;-72
2024/02/09 08:34:56;;;;;;;15.07;3.30;;;12.20;99.90;;;;;;5041419;28;20037;-71
2024/02/09 08:37:24;;;;;;;8.27;3.10;;;12.30;99.90;;;;;;5040012;28;20029;-72
2024/02/09 08:39:50;;;;;;;7.93;3.60;;;12.30;99.90;;;;;;5038676;28;20192;-71
2024/02/09 08:42:16;;;;;;;8.93;2.60;;;12.40;99.90;;;;;;5037771;28;20505;-71
2024/02/09 08:44:42;;;;;;;8.88;3.22;;;12.50;99.90;;;;;;5038000;28;20032;-72
2024/02/09 08:47:10;;;;;;;10.02;3.00;;;12.50;99.90;;;;;;5041877;28;20033;-71
2024/02/09 08:49:36;;;;;;;11.13;3.58;;;12.60;99.90;;;;;;5034767;28;20021;-71
2024/02/09 08:52:02;;;;;;;8.32;3.28;;;12.60;99.90;;;;;;5039663;28;20025;-71
2024/02/09 08:54:29;;;;;;;9.90;3.08;;;12.60;99.90;;;;;;5040014;28;20025;-71
2024/02/09 08:56:56;;;;;;;10.27;3.10;;;12.50;99.90;;;;;;5037196;28;20405;-71
2024/02/09 08:59:22;;;;;;;10.40;2.95;;;12.60;99.90;;;;;;5038195;28;20045;-71
2024/02/09 09:01:48;;;;;;;7.47;2.72;;;12.60;99.90;;;;;;5034083;28;20563;-70
2024/02/09 09:04:13;;;;;;;8.07;2.70;;;12.60;99.90;;;;;;5032137;28;20032;-70
2024/02/09 09:06:40;;;;;;;7.05;3.13;;;12.60;99.90;;;;;;5032233;28;20026;-71
2024/02/09 09:09:06;;;;;;;13.20;3.58;;;12.70;99.90;;;;;;5033039;28;20021;-72
2024/02/09 09:11:31;;;;;;;6.95;2.78;;;12.70;99.90;;;;;;5032078;28;20467;-72
2024/02/09 09:13:57;;;;;;;4.63;2.40;;;12.70;99.90;;;;;;5037915;28;20084;-72
2024/02/09 09:16:23;;;;;;;7.07;2.60;;;12.70;99.90;;;;;;5033768;28;20034;-72
2024/02/09 09:18:50;;;;;;;9.82;2.90;;;12.70;99.90;;;;;;5035153;28;20364;-72
2024/02/09 09:21:16;;;;;;;5.60;2.88;;;12.70;99.90;;;;;;5033321;28;20035;-72
2024/02/09 09:23:42;;;;;;;10.50;3.13;;;12.70;99.90;;;;;;5038376;28;20427;-73
2024/02/09 09:26:08;;;;;;;4.65;2.30;;;12.70;99.90;;;;;;5037625;28;20044;-73
2024/02/09 09:28:34;;;;;;;7.82;2.78;;;12.70;99.90;;;;;;5037289;28;20118;-72
2024/02/09 09:31:00;;;;;;;5.38;2.83;;;12.80;99.90;;;;;;5037881;28;20037;-72
2024/02/09 09:33:25;;;;;;;4.03;2.50;;;12.90;99.90;;;;;;5037075;28;20060;-73
2024/02/09 09:36:00;;;;;;;7.55;2.15;;;12.90;99.90;;;;;;5038145;28;20138;-73
2024/02/09 09:38:26;;;;;;;8.00;2.35;;;12.80;99.90;;;;;;5041037;28;20823;-72
2024/02/09 09:40:55;;;;;;;7.25;2.63;;;12.90;99.90;;;;;;5036587;28;20489;-73
2024/02/09 09:43:24;;;;;;;5.25;2.30;;;12.90;99.90;;;;;;5037799;28;20017;-72
2024/02/09 09:45:59;;;;;;;7.80;2.67;;;13.00;99.90;;;;;;5036580;28;20024;-72
2024/02/09 09:48:26;;;;;;;7.07;2.00;;;13.00;99.90;;;;;;5040661;28;20025;-74
2024/02/09 09:50:54;;;;;;;5.78;2.33;;;13.00;99.90;;;;;;5041785;28;20508;-74
2024/02/09 09:53:30;;;;;;;5.97;2.38;;;13.10;99.90;;;;;;5041975;28;20481;-74
2024/02/09 09:55:58;;;;;;;7.18;2.25;;;13.10;99.90;;;;;;5033982;28;20946;-74
2024/02/09 09:58:24;;;;;;;5.18;2.03;;;13.10;99.90;;;;;;5038455;28;20417;-73
2024/02/09 10:00:52;;;;;;;7.85;2.70;;;13.20;99.90;;;;;;5038082;28;20079;-73
2024/02/09 10:03:19;;;;;;;11.75;3.05;;;13.20;99.90;;;;;;5038311;28;20493;-73
2024/02/09 10:05:45;;;;;;;6.00;2.03;;;13.20;99.90;;;;;;5036193;28;20535;-73
2024/02/09 10:08:12;;;;;;;8.07;2.30;;;13.20;99.90;;;;;;5040039;28;20009;-72
2024/02/09 10:10:39;;;;;;;10.50;2.25;;;13.20;99.90;;;;;;5038148;28;20029;-73
2024/02/09 10:13:11;;;;;;;5.97;1.75;;;13.30;99.90;;;;;;5034607;28;20017;-72
2024/02/09 10:15:46;;;;;;;6.97;1.90;;;13.30;99.90;;;;;;5038213;28;20098;-73
2024/02/09 10:18:12;;;;;;;8.18;2.47;;;13.50;99.90;;;;;;5037046;28;20025;-72
2024/02/09 10:20:40;;;;;;;9.95;2.35;;;13.60;99.90;;;;;;5039192;28;20029;-73
2024/02/09 10:23:06;;;;;;;5.90;1.70;;;13.60;99.90;;;;;;5034038;28;20096;-72
2024/02/09 10:25:32;;;;;;;7.80;2.10;;;13.60;99.90;;;;;;5035088;28;20107;-72
2024/02/09 10:27:59;;;;;;;8.52;2.10;;;13.70;99.90;;;;;;5035369;28;20028;-71
2024/02/09 10:30:27;;;;;;;7.85;2.28;;;13.70;99.90;;;;;;5037829;28;20029;-72
2024/02/09 10:32:52;;;;;;;8.02;2.50;;;13.90;99.90;;;;;;5031181;28;20035;-72
2024/02/09 10:35:19;;;;;;;3.90;1.73;;;14.00;99.90;;;;;;5042378;28;20111;-72
2024/02/09 10:37:45;;;;;;;8.48;2.17;;;14.10;99.90;;;;;;5034163;28;20025;-72
2024/02/09 10:40:11;;;;;;;3.92;2.08;;;14.00;99.90;;;;;;5039844;28;20033;-73
2024/02/09 10:42:40;;;;;;;8.60;2.00;;;14.00;99.90;;;;;;5029925;28;20067;-72
2024/02/09 10:45:09;;;;;;;6.35;2.03;;;14.10;99.90;;;;;;5035620;28;20035;-72
2024/02/09 10:47:39;;;;;;;4.43;2.28;;;14.10;99.90;;;;;;5034275;28;20399;-73
2024/02/09 10:50:06;;;;;;;4.45;2.20;;;14.10;99.90;;;;;;5032019;28;20078;-73
2024/02/09 10:52:42;;;;;;;6.72;1.92;;;14.00;99.90;;;;;;5038798;28;20049;-74
2024/02/09 10:55:09;;;;;;;5.07;2.00;;;14.10;99.90;;;;;;5038088;28;20033;-72
2024/02/09 10:57:36;;;;;;;6.70;1.88;;;14.10;99.90;;;;;;5034224;28;20031;-72
2024/02/09 11:00:05;;;;;;;7.75;1.90;;;14.10;99.90;;;;;;5034087;28;20014;-73
2024/02/09 11:02:35;;;;;;;5.63;1.77;;;14.10;99.90;;;;;;5038853;28;20032;-73
2024/02/09 11:05:03;;;;;;;4.93;1.88;;;14.10;99.90;;;;;;5036466;28;20027;-73
2024/02/09 11:07:29;;;;;;;5.82;2.15;;;14.10;99.90;;;;;;5036464;28;20036;-74
2024/02/09 11:09:56;;;;;;;8.20;2.90;;;14.10;99.90;;;;;;5038366;28;20028;-73
2024/02/09 11:12:21;;;;;;;4.38;1.90;;;14.00;99.90;;;;;;5033079;28;20013;-72
2024/02/09 11:14:47;;;;;;;6.68;2.38;;;14.00;99.90;;;;;;5036776;28;20505;-73
2024/02/09 11:17:18;;;;;;;4.65;1.85;;;14.00;99.90;;;;;;5038931;28;20888;-73
2024/02/09 11:19:44;;;;;;;6.20;2.25;;;14.00;99.90;;;;;;5036254;28;20591;-73
2024/02/09 11:22:11;;;;;;;5.18;1.95;;;14.10;99.90;;;;;;5038287;28;20036;-73
2024/02/09 11:24:37;;;;;;;3.60;2.22;;;14.10;99.90;;;;;;5034529;28;20025;-73
2024/02/09 11:27:05;;;;;;;6.65;2.40;;;14.10;99.90;;;;;;5031425;28;20025;-74
2024/02/09 11:29:34;;;;;;;7.80;2.35;;;14.20;99.90;;;;;;5035174;28;20021;-74
2024/02/09 11:32:04;;;;;;;4.10;1.58;;;14.20;99.90;;;;;;5035171;28;20529;-73
2024/02/09 11:34:34;;;;;;;4.25;2.05;;;14.20;99.90;;;;;;5036402;28;20040;-73
2024/02/09 11:37:00;;;;;;;7.03;1.88;;;14.20;99.90;;;;;;5038742;28;20079;-74
2024/02/09 11:39:33;;;;;;;4.30;1.75;;;14.30;99.90;;;;;;5028690;28;20017;-73
2024/02/09 11:42:02;;;;;;;3.67;1.63;;;14.30;99.90;;;;;;5027689;28;20025;-74
2024/02/09 11:44:27;;;;;;;3.35;1.70;;;14.20;99.90;;;;;;5035213;28;20028;-73
2024/02/09 11:46:54;;;;;;;5.50;2.00;;;14.20;99.90;;;;;;5034672;28;20112;-72
2024/02/09 11:49:21;;;;;;;5.85;1.63;;;14.20;99.90;;;;;;5032852;28;20026;-73
2024/02/09 11:51:47;;;;;;;5.13;1.92;;;14.20;99.90;;;;;;5039826;28;20032;-73
2024/02/09 11:54:14;;;;;;;8.38;1.90;;;14.20;99.90;;;;;;5036311;28;20025;-72
2024/02/09 11:56:41;;;;;;;6.50;1.98;;;14.20;99.90;;;;;;5033020;28;20083;-72
2024/02/09 11:59:09;;;;;;;6.93;1.90;;;14.30;99.90;;;;;;5031567;28;20048;-72
2024/02/09 12:01:35;;;;;;;8.50;2.30;;;14.20;99.90;;;;;;5029756;28;20037;-72
2024/02/09 12:04:01;;;;;;;8.48;2.10;;;14.20;99.90;;;;;;5035658;28;20017;-72
2024/02/09 12:06:30;;;;;;;6.53;2.33;;;14.20;99.90;;;;;;5034270;28;20078;-74
2024/02/09 12:08:56;;;;;;;7.25;1.90;;;14.20;99.90;;;;;;5036220;28;20071;-73
2024/02/09 12:11:22;;;;;;;6.20;1.90;;;14.20;99.90;;;;;;5032397;28;20064;-73
2024/02/09 12:13:49;;;;;;;6.50;2.03;;;14.20;99.90;;;;;;5033228;28;20017;-72
2024/02/09 12:16:18;;;;;;;6.72;2.30;;;14.20;99.90;;;;;;5033419;28;20033;-73
2024/02/09 12:18:53;;;;;;;7.93;1.92;;;14.20;99.90;;;;;;5036192;28;20014;-72
2024/02/09 12:21:19;;;;;;;6.68;1.95;;;14.10;99.90;;;;;;5036059;28;20041;-72
2024/02/09 12:23:45;;;;;;;5.32;2.13;;;14.20;99.90;;;;;;5029195;28;20151;-74
2024/02/09 12:26:19;;;;;;;4.45;2.20;;;14.20;99.90;;;;;;5036132;28;20083;-74
2024/02/09 12:28:45;;;;;;;5.35;1.90;;;14.20;99.90;;;;;;5042358;28;20504;-75
2024/02/09 12:31:16;;;;;;;5.35;2.30;;;14.20;99.90;;;;;;5036646;28;20037;-74
2024/02/09 12:33:49;;;;;;;8.68;2.10;;;14.30;99.90;;;;;;5038494;28;20029;-76
2024/02/09 12:36:20;;;;;;;8.07;2.42;;;14.30;99.90;;;;;;5039038;28;20029;-74
2024/02/09 12:38:58;;;;;;;4.63;2.10;;;14.30;99.90;;;;;;5036616;28;20084;-75
2024/02/09 12:41:27;;;;;;;8.45;1.88;;;14.30;99.90;;;;;;5037573;28;20469;-75
2024/02/09 12:43:56;;;;;;;5.82;2.15;;;14.30;99.90;;;;;;5034330;28;20021;-74
2024/02/09 12:46:25;;;;;;;8.77;2.25;;;14.40;99.90;;;;;;5035850;28;20025;-74
2024/02/09 12:48:50;;;;;;;4.82;2.28;;;14.40;99.90;;;;;;5036136;28;20029;-75
2024/02/09 12:51:17;;;;;;;9.40;2.17;;;14.40;99.90;;;;;;5036425;28;20021;-75
2024/02/09 12:53:43;;;;;;;7.80;2.15;;;14.40;99.90;;;;;;5035505;28;20086;-75
2024/02/09 12:56:11;;;;;;;7.72;2.20;;;14.50;99.90;;;;;;5035507;28;20075;-75
2024/02/09 12:58:36;;;;;;;8.15;2.25;;;14.40;99.90;;;;;;5037755;28;20021;-73
2024/02/09 13:01:04;;;;;;;9.13;2.05;;;14.50;99.90;;;;;;5034510;28;20378;-72
2024/02/09 13:03:30;;;;;;;5.45;2.38;;;14.50;99.90;;;;;;5035235;28;20024;-72
2024/02/09 13:05:56;;;;;;;7.40;2.10;;;14.50;99.90;;;;;;5038661;28;20040;-72
2024/02/09 13:08:21;;;;;;;8.57;1.77;;;14.50;99.90;;;;;;5038559;28;20398;-75
2024/02/09 13:10:49;;;;;;;3.67;2.30;;;14.50;99.90;;;;;;5039057;28;20033;-75
2024/02/09 13:13:16;;;;;;;6.75;2.08;;;14.40;99.90;;;;;;5036821;28;20017;-75
2024/02/09 13:15:42;;;;;;;4.75;1.80;;;14.50;99.90;;;;;;5035256;28;20036;-75
2024/02/09 13:18:08;;;;;;;4.18;2.00;;;14.50;99.90;;;;;;5032806;28;20029;-75
2024/02/09 13:20:37;;;;;;;5.32;2.28;;;14.50;99.90;;;;;;5025742;28;20033;-75
2024/02/09 13:23:03;;;;;;;6.22;4.47;;;14.50;99.90;;;;;;5030839;28;20041;-73
2024/02/09 13:25:33;;;;;;;7.45;1.95;;;14.50;99.90;;;;;;5031176;28;20028;-73
2024/02/09 13:27:59;;;;;;;5.43;1.90;;;14.50;99.90;;;;;;5039361;28;20020;-76
2024/02/09 13:30:28;;;;;;;6.05;1.90;;;14.50;99.90;;;;;;5037369;28;20067;-72
2024/02/09 13:32:55;;;;;;;9.05;2.55;;;14.40;99.90;;;;;;5030683;28;20144;-72
2024/02/09 13:35:22;;;;;;;3.45;1.88;;;14.40;99.90;;;;;;5041738;28;20035;-72
2024/02/09 13:37:49;;;;;;;6.32;2.33;;;14.50;99.90;;;;;;5038108;28;20021;-72
2024/02/09 13:40:15;;;;;;;6.30;1.80;;;14.40;99.90;;;;;;5034381;28;20493;-73
2024/02/09 13:42:47;;;;;;;10.32;1.85;;;14.40;99.90;;;;;;5037342;28;20028;-73
2024/02/09 13:45:17;;;;;;;5.57;1.88;;;14.50;99.90;;;;;;5033592;28;20033;-73
2024/02/09 13:47:43;;;;;;;4.28;1.65;;;14.60;99.90;;;;;;5036436;28;20499;-73
2024/02/09 13:50:12;;;;;;;6.18;1.83;;;14.60;99.90;;;;;;5038006;28;20049;-73
2024/02/09 13:52:39;;;;;;;7.72;1.70;;;14.70;99.90;;;;;;5040516;28;20017;-72
2024/02/09 13:55:13;;;;;;;3.92;1.45;;;14.70;99.90;;;;;;5040642;28;20029;-72
2024/02/09 13:57:45;;;;;;;3.45;1.45;;;14.80;99.90;;;;;;5042883;28;20052;-72
2024/02/09 14:00:12;;;;;;;6.80;1.80;;;14.80;99.90;;;;;;5038555;28;20425;-72
2024/02/09 14:02:39;;;;;;;4.15;1.65;;;14.80;99.90;;;;;;5041672;28;20021;-72
2024/02/09 14:05:05;;;;;;;5.05;1.58;;;14.80;99.90;;;;;;5038032;28;20021;-72
2024/02/09 14:07:31;;;;;;;8.90;2.28;;;14.80;99.90;;;;;;5037141;28;20064;-72
2024/02/09 14:09:58;;;;;;;8.70;1.85;;;14.70;99.90;;;;;;5039770;28;20522;-72
2024/02/09 14:12:24;;;;;;;6.80;1.70;;;14.70;99.90;;;;;;5037670;28;20059;-72
2024/02/09 14:14:50;;;;;;;4.78;1.80;;;14.70;99.90;;;;;;5040965;28;20018;-72
2024/02/09 14:17:16;;;;;;;11.55;1.88;;;14.70;99.90;;;;;;5036123;28;20053;-72
2024/02/09 14:19:45;;;;;;;6.90;2.13;;;14.70;99.90;;;;;;5037367;28;20438;-72
2024/02/09 14:22:12;;;;;;;8.48;1.90;;;14.70;99.90;;;;;;5036363;28;21199;-72
2024/02/09 14:24:38;;;;;;;5.40;2.40;;;14.70;99.90;;;;;;5038077;28;20052;-72
2024/02/09 14:27:11;;;;;;;5.95;1.70;;;14.70;99.90;;;;;;5036807;28;20497;-73
2024/02/09 14:29:40;;;;;;;2.55;1.40;;;14.70;99.90;;;;;;5035441;28;21520;-72
2024/02/09 14:32:09;;;;;;;9.43;2.25;;;14.80;99.90;;;;;;5035124;28;20063;-72